sensor_id;sensor_type;location;lat;lon;timestamp;pressure;altitude;pressure_sealevel;temperature;humidity
44751;BME280;30477;48.224;11.470;2023-04-09T00:02:09;96674.06;;;5.28;75.52
44751;BME280;30477;48.224;11.470;2023-04-09T00:04:35;96674.88;;;5.28;75.81
44751;BME280;30477;48.224;11.470;2023-04-09T00:07:00;96674.34;;;5.38;75.91
44751;BME280;30477;48.224;11.470;2023-04-09T00:09:26;96672.50;;;5.40;75.88
44751;BME280;30477;48.224;11.470;2023-04-09T00:11:51;96663.69;;;5.44;75.77
44751;BME280;30477;48.224;11.470;2023-04-09T00:14:16;96670.47;;;5.45;76.10
44751;BME280;30477;48.224;11.470;2023-04-09T00:16:41;96655.06;;;5.45;75.84
44751;BME280;30477;48.224;11.470;2023-04-09T00:19:07;96661.94;;;5.44;75.71
44751;BME280;30477;48.224;11.470;2023-04-09T00:21:32;96661.47;;;5.52;76.02
44751;BME280;30477;48.224;11.470;2023-04-09T00:23:57;96659.38;;;5.44;75.51
44751;BME280;30477;48.224;11.470;2023-04-09T00:26:23;96662.97;;;5.42;75.69
44751;BME280;30477;48.224;11.470;2023-04-09T00:28:48;96660.41;;;5.42;75.69
44751;BME280;30477;48.224;11.470;2023-04-09T00:31:13;96658.75;;;5.41;75.60
44751;BME280;30477;48.224;11.470;2023-04-09T00:33:39;96660.00;;;5.48;75.91
44751;BME280;30477;48.224;11.470;2023-04-09T00:36:05;96658.53;;;5.58;75.79
44751;BME280;30477;48.224;11.470;2023-04-09T00:38:30;96656.59;;;5.62;75.78
44751;BME280;30477;48.224;11.470;2023-04-09T00:40:56;96655.41;;;5.53;75.59
44751;BME280;30477;48.224;11.470;2023-04-09T00:43:21;96652.13;;;5.51;75.18
44751;BME280;30477;48.224;11.470;2023-04-09T00:45:47;96650.88;;;5.44;75.49
44751;BME280;30477;48.224;11.470;2023-04-09T00:48:12;96655.88;;;5.45;75.93
44751;BME280;30477;48.224;11.470;2023-04-09T00:50:40;96653.81;;;5.38;75.53
44751;BME280;30477;48.224;11.470;2023-04-09T00:53:06;96652.50;;;5.31;75.66
44751;BME280;30477;48.224;11.470;2023-04-09T00:55:31;96656.53;;;5.20;75.99
44751;BME280;30477;48.224;11.470;2023-04-09T00:57:57;96656.19;;;5.26;76.25
44751;BME280;30477;48.224;11.470;2023-04-09T01:00:22;96656.19;;;5.26;76.12
44751;BME280;30477;48.224;11.470;2023-04-09T01:02:48;96657.47;;;5.34;76.30
44751;BME280;30477;48.224;11.470;2023-04-09T01:05:15;96651.75;;;5.43;76.26
44751;BME280;30477;48.224;11.470;2023-04-09T01:07:56;96646.19;;;5.51;76.26
44751;BME280;30477;48.224;11.470;2023-04-09T01:10:38;96651.59;;;5.46;76.00
44751;BME280;30477;48.224;11.470;2023-04-09T01:15:47;96641.84;;;5.51;76.17
44751;BME280;30477;48.224;11.470;2023-04-09T01:18:29;96644.59;;;5.48;75.69
44751;BME280;30477;48.224;11.470;2023-04-09T01:21:03;96643.53;;;5.38;75.78
44751;BME280;30477;48.224;11.470;2023-04-09T01:26:10;96646.84;;;5.25;75.77
44751;BME280;30477;48.224;11.470;2023-04-09T01:28:45;96645.19;;;5.24;75.89
44751;BME280;30477;48.224;11.470;2023-04-09T01:31:14;96645.75;;;5.15;75.67
44751;BME280;30477;48.224;11.470;2023-04-09T01:33:41;96652.53;;;5.02;75.94
44751;BME280;30477;48.224;11.470;2023-04-09T01:36:08;96645.38;;;5.07;76.28
44751;BME280;30477;48.224;11.470;2023-04-09T01:38:40;96653.81;;;5.09;76.36
44751;BME280;30477;48.224;11.470;2023-04-09T01:41:13;96659.09;;;5.06;76.21
44751;BME280;30477;48.224;11.470;2023-04-09T01:43:39;96659.31;;;5.03;76.39
44751;BME280;30477;48.224;11.470;2023-04-09T01:46:05;96659.50;;;5.00;76.32
44751;BME280;30477;48.224;11.470;2023-04-09T01:48:32;96656.19;;;4.98;76.58
44751;BME280;30477;48.224;11.470;2023-04-09T01:50:58;96656.34;;;4.95;76.52
44751;BME280;30477;48.224;11.470;2023-04-09T01:53:23;96664.97;;;4.94;76.41
44751;BME280;30477;48.224;11.470;2023-04-09T01:55:53;96656.94;;;5.00;76.71
44751;BME280;30477;48.224;11.470;2023-04-09T01:58:19;96652.88;;;5.10;76.76
44751;BME280;30477;48.224;11.470;2023-04-09T02:00:47;96651.78;;;5.14;76.55
44751;BME280;30477;48.224;11.470;2023-04-09T02:03:18;96658.00;;;5.24;76.46
44751;BME280;30477;48.224;11.470;2023-04-09T02:06:06;96659.84;;;5.22;76.27
44751;BME280;30477;48.224;11.470;2023-04-09T02:08:34;96658.38;;;5.18;76.27
44751;BME280;30477;48.224;11.470;2023-04-09T02:11:03;96649.69;;;5.06;76.27
44751;BME280;30477;48.224;11.470;2023-04-09T02:13:31;96655.09;;;5.02;76.38
44751;BME280;30477;48.224;11.470;2023-04-09T02:16:00;96653.78;;;4.95;76.28
44751;BME280;30477;48.224;11.470;2023-04-09T02:18:29;96650.31;;;4.81;76.31
44751;BME280;30477;48.224;11.470;2023-04-09T02:20:56;96652.13;;;4.79;76.77
44751;BME280;30477;48.224;11.470;2023-04-09T02:23:22;96651.94;;;4.82;76.71
44751;BME280;30477;48.224;11.470;2023-04-09T02:25:48;96653.63;;;4.83;76.88
44751;BME280;30477;48.224;11.470;2023-04-09T02:28:14;96658.75;;;4.83;76.74
44751;BME280;30477;48.224;11.470;2023-04-09T02:30:39;96650.13;;;4.84;76.94
44751;BME280;30477;48.224;11.470;2023-04-09T02:33:05;96653.03;;;4.78;76.93
44751;BME280;30477;48.224;11.470;2023-04-09T02:35:30;96652.97;;;4.80;77.22
44751;BME280;30477;48.224;11.470;2023-04-09T02:37:56;96658.75;;;4.83;77.10
44751;BME280;30477;48.224;11.470;2023-04-09T02:40:21;96651.66;;;4.87;77.16
44751;BME280;30477;48.224;11.470;2023-04-09T02:42:46;96654.44;;;4.84;77.14
44751;BME280;30477;48.224;11.470;2023-04-09T02:45:12;96652.69;;;4.84;77.08
44751;BME280;30477;48.224;11.470;2023-04-09T02:47:37;96654.16;;;4.88;77.14
44751;BME280;30477;48.224;11.470;2023-04-09T02:50:04;96648.38;;;4.85;76.99
44751;BME280;30477;48.224;11.470;2023-04-09T02:52:29;96641.69;;;4.82;77.10
44751;BME280;30477;48.224;11.470;2023-04-09T02:54:54;96637.56;;;4.80;77.01
44751;BME280;30477;48.224;11.470;2023-04-09T02:57:19;96637.78;;;4.77;77.03
44751;BME280;30477;48.224;11.470;2023-04-09T02:59:45;96631.25;;;4.85;77.17
44751;BME280;30477;48.224;11.470;2023-04-09T03:02:10;96634.38;;;4.91;77.11
44751;BME280;30477;48.224;11.470;2023-04-09T03:04:37;96631.53;;;4.95;77.12
44751;BME280;30477;48.224;11.470;2023-04-09T03:07:02;96631.34;;;4.98;76.77
44751;BME280;30477;48.224;11.470;2023-04-09T03:09:27;96624.94;;;4.91;76.73
44751;BME280;30477;48.224;11.470;2023-04-09T03:11:54;96623.38;;;4.88;76.71
44751;BME280;30477;48.224;11.470;2023-04-09T03:14:24;96620.66;;;4.92;76.72
44751;BME280;30477;48.224;11.470;2023-04-09T03:16:49;96615.31;;;4.95;76.62
44751;BME280;30477;48.224;11.470;2023-04-09T03:19:14;96619.19;;;4.87;76.62
44751;BME280;30477;48.224;11.470;2023-04-09T03:21:40;96626.97;;;4.86;76.72
44751;BME280;30477;48.224;11.470;2023-04-09T03:24:05;96630.41;;;4.85;76.77
44751;BME280;30477;48.224;11.470;2023-04-09T03:26:31;96627.59;;;4.90;76.83
44751;BME280;30477;48.224;11.470;2023-04-09T03:29:01;96628.34;;;4.92;77.05
44751;BME280;30477;48.224;11.470;2023-04-09T03:31:26;96634.47;;;5.03;77.09
44751;BME280;30477;48.224;11.470;2023-04-09T03:33:51;96632.47;;;5.08;77.02
44751;BME280;30477;48.224;11.470;2023-04-09T03:36:17;96624.47;;;5.13;76.82
44751;BME280;30477;48.224;11.470;2023-04-09T03:38:42;96619.06;;;5.03;76.51
44751;BME280;30477;48.224;11.470;2023-04-09T03:41:07;96619.72;;;4.93;76.40
44751;BME280;30477;48.224;11.470;2023-04-09T03:43:33;96631.34;;;4.84;76.54
44751;BME280;30477;48.224;11.470;2023-04-09T03:45:58;96644.25;;;4.82;76.63
44751;BME280;30477;48.224;11.470;2023-04-09T03:48:23;96652.50;;;4.73;77.09
44751;BME280;30477;48.224;11.470;2023-04-09T03:50:49;96660.19;;;4.73;77.09
44751;BME280;30477;48.224;11.470;2023-04-09T03:53:14;96659.81;;;4.65;76.86
44751;BME280;30477;48.224;11.470;2023-04-09T03:55:39;96665.00;;;4.63;77.27
44751;BME280;30477;48.224;11.470;2023-04-09T03:58:05;96663.66;;;4.58;77.38
44751;BME280;30477;48.224;11.470;2023-04-09T04:00:30;96662.38;;;4.65;77.65
44751;BME280;30477;48.224;11.470;2023-04-09T04:02:56;96661.44;;;4.66;77.78
44751;BME280;30477;48.224;11.470;2023-04-09T04:05:22;96655.50;;;4.65;77.75
44751;BME280;30477;48.224;11.470;2023-04-09T04:07:49;96661.09;;;4.72;77.58
44751;BME280;30477;48.224;11.470;2023-04-09T04:10:14;96665.09;;;4.62;77.29
44751;BME280;30477;48.224;11.470;2023-04-09T04:12:40;96666.22;;;4.58;77.67
44751;BME280;30477;48.224;11.470;2023-04-09T04:15:05;96670.22;;;4.47;77.36
44751;BME280;30477;48.224;11.470;2023-04-09T04:17:31;96660.56;;;4.37;78.01
44751;BME280;30477;48.224;11.470;2023-04-09T04:19:56;96671.31;;;4.43;77.61
44751;BME280;30477;48.224;11.470;2023-04-09T04:22:21;96668.47;;;4.48;77.86
44751;BME280;30477;48.224;11.470;2023-04-09T04:24:47;96668.38;;;4.50;77.92
44751;BME280;30477;48.224;11.470;2023-04-09T04:27:12;96668.91;;;4.40;77.54
44751;BME280;30477;48.224;11.470;2023-04-09T04:29:37;96666.66;;;4.50;77.70
44751;BME280;30477;48.224;11.470;2023-04-09T04:32:03;96669.13;;;4.52;77.73
44751;BME280;30477;48.224;11.470;2023-04-09T04:34:28;96664.69;;;4.39;77.20
44751;BME280;30477;48.224;11.470;2023-04-09T04:36:54;96660.00;;;4.32;77.31
44751;BME280;30477;48.224;11.470;2023-04-09T04:39:19;96665.38;;;4.27;77.29
44751;BME280;30477;48.224;11.470;2023-04-09T04:41:44;96673.28;;;4.38;77.39
44751;BME280;30477;48.224;11.470;2023-04-09T04:44:10;96670.16;;;4.33;77.30
44751;BME280;30477;48.224;11.470;2023-04-09T04:46:35;96670.50;;;4.27;77.14
44751;BME280;30477;48.224;11.470;2023-04-09T04:49:00;96669.19;;;4.20;77.16
44751;BME280;30477;48.224;11.470;2023-04-09T04:51:25;96658.03;;;4.21;77.41
44751;BME280;30477;48.224;11.470;2023-04-09T04:53:51;96657.13;;;4.22;77.39
44751;BME280;30477;48.224;11.470;2023-04-09T04:56:17;96655.94;;;4.27;77.16
44751;BME280;30477;48.224;11.470;2023-04-09T04:58:42;96658.16;;;4.34;77.29
44751;BME280;30477;48.224;11.470;2023-04-09T05:01:07;96657.91;;;4.38;77.24
44751;BME280;30477;48.224;11.470;2023-04-09T05:03:33;96658.25;;;4.32;77.00
44751;BME280;30477;48.224;11.470;2023-04-09T05:05:58;96667.72;;;4.46;77.46
44751;BME280;30477;48.224;11.470;2023-04-09T05:08:23;96666.72;;;4.48;77.00
44751;BME280;30477;48.224;11.470;2023-04-09T05:10:49;96661.03;;;4.43;76.78
44751;BME280;30477;48.224;11.470;2023-04-09T05:13:15;96671.09;;;4.46;76.90
44751;BME280;30477;48.224;11.470;2023-04-09T05:15:40;96671.03;;;4.48;77.07
44751;BME280;30477;48.224;11.470;2023-04-09T05:18:06;96684.84;;;4.45;76.80
44751;BME280;30477;48.224;11.470;2023-04-09T05:20:33;96688.50;;;4.41;76.50
44751;BME280;30477;48.224;11.470;2023-04-09T05:22:58;96699.03;;;4.51;76.84
44751;BME280;30477;48.224;11.470;2023-04-09T05:25:24;96696.59;;;4.50;76.71
44751;BME280;30477;48.224;11.470;2023-04-09T05:27:49;96700.03;;;4.48;76.53
44751;BME280;30477;48.224;11.470;2023-04-09T05:30:14;96694.53;;;4.40;76.48
44751;BME280;30477;48.224;11.470;2023-04-09T05:32:40;96699.22;;;4.48;76.42
44751;BME280;30477;48.224;11.470;2023-04-09T05:35:06;96701.00;;;4.62;76.59
44751;BME280;30477;48.224;11.470;2023-04-09T05:37:31;96697.94;;;4.85;76.55
44751;BME280;30477;48.224;11.470;2023-04-09T05:39:56;96701.00;;;5.06;76.33
44751;BME280;30477;48.224;11.470;2023-04-09T05:42:22;96708.78;;;5.05;75.82
44751;BME280;30477;48.224;11.470;2023-04-09T05:44:47;96709.25;;;5.12;76.03
44751;BME280;30477;48.224;11.470;2023-04-09T05:47:12;96702.72;;;5.20;75.49
44751;BME280;30477;48.224;11.470;2023-04-09T05:49:38;96709.59;;;5.05;75.11
44751;BME280;30477;48.224;11.470;2023-04-09T05:52:03;96704.56;;;5.18;75.62
44751;BME280;30477;48.224;11.470;2023-04-09T05:54:29;96696.41;;;5.55;75.56
44751;BME280;30477;48.224;11.470;2023-04-09T05:56:55;96691.44;;;5.95;74.80
44751;BME280;30477;48.224;11.470;2023-04-09T05:59:20;96691.66;;;6.32;74.43
44751;BME280;30477;48.224;11.470;2023-04-09T06:01:45;96690.06;;;6.56;73.76
44751;BME280;30477;48.224;11.470;2023-04-09T06:04:11;96694.09;;;6.60;72.94
44751;BME280;30477;48.224;11.470;2023-04-09T06:06:37;96687.03;;;6.89;72.99
44751;BME280;30477;48.224;11.470;2023-04-09T06:09:02;96684.56;;;7.01;72.09
44751;BME280;30477;48.224;11.470;2023-04-09T06:11:28;96681.50;;;7.08;71.82
44751;BME280;30477;48.224;11.470;2023-04-09T06:13:54;96693.00;;;7.28;71.53
44751;BME280;30477;48.224;11.470;2023-04-09T06:16:19;96692.16;;;7.53;71.00
44751;BME280;30477;48.224;11.470;2023-04-09T06:18:45;96688.88;;;7.64;70.52
44751;BME280;30477;48.224;11.470;2023-04-09T06:21:11;96685.69;;;7.85;69.83
44751;BME280;30477;48.224;11.470;2023-04-09T06:23:38;96687.31;;;7.99;68.94
44751;BME280;30477;48.224;11.470;2023-04-09T06:26:04;96688.91;;;8.12;68.72
44751;BME280;30477;48.224;11.470;2023-04-09T06:28:30;96703.44;;;8.38;68.26
44751;BME280;30477;48.224;11.470;2023-04-09T06:30:55;96700.13;;;8.48;67.81
44751;BME280;30477;48.224;11.470;2023-04-09T06:33:21;96710.47;;;8.48;66.59
44751;BME280;30477;48.224;11.470;2023-04-09T06:35:47;96703.44;;;8.13;66.05
44751;BME280;30477;48.224;11.470;2023-04-09T06:38:12;96706.56;;;8.06;65.98
44751;BME280;30477;48.224;11.470;2023-04-09T06:40:38;96704.50;;;8.11;65.80
44751;BME280;30477;48.224;11.470;2023-04-09T06:43:07;96710.47;;;8.36;65.37
44751;BME280;30477;48.224;11.470;2023-04-09T06:45:32;96711.19;;;8.62;64.79
44751;BME280;30477;48.224;11.470;2023-04-09T06:47:58;96717.81;;;8.77;64.25
44751;BME280;30477;48.224;11.470;2023-04-09T06:50:24;96707.47;;;8.66;62.57
44751;BME280;30477;48.224;11.470;2023-04-09T06:52:53;96708.88;;;8.22;62.44
44751;BME280;30477;48.224;11.470;2023-04-09T06:55:18;96710.47;;;8.48;63.63
44751;BME280;30477;48.224;11.470;2023-04-09T06:57:44;96709.13;;;8.43;62.94
44751;BME280;30477;48.224;11.470;2023-04-09T07:00:09;96708.69;;;8.49;62.22
44751;BME280;30477;48.224;11.470;2023-04-09T07:02:35;96713.69;;;8.74;62.32
44751;BME280;30477;48.224;11.470;2023-04-09T07:05:02;96716.44;;;8.84;62.22
44751;BME280;30477;48.224;11.470;2023-04-09T07:07:28;96711.56;;;9.04;61.61
44751;BME280;30477;48.224;11.470;2023-04-09T07:09:54;96710.88;;;9.35;60.73
44751;BME280;30477;48.224;11.470;2023-04-09T07:12:32;96705.38;;;9.51;60.52
44751;BME280;30477;48.224;11.470;2023-04-09T07:15:03;96713.13;;;9.85;59.81
44751;BME280;30477;48.224;11.470;2023-04-09T07:17:29;96709.47;;;9.31;58.53
44751;BME280;30477;48.224;11.470;2023-04-09T07:19:55;96711.84;;;8.88;58.15
44751;BME280;30477;48.224;11.470;2023-04-09T07:22:21;96716.22;;;8.99;59.44
44751;BME280;30477;48.224;11.470;2023-04-09T07:24:47;96710.88;;;9.47;59.40
44751;BME280;30477;48.224;11.470;2023-04-09T07:27:20;96713.47;;;9.92;59.33
44751;BME280;30477;48.224;11.470;2023-04-09T07:29:46;96704.56;;;10.28;57.85
44751;BME280;30477;48.224;11.470;2023-04-09T07:32:11;96705.81;;;10.45;56.61
44751;BME280;30477;48.224;11.470;2023-04-09T07:34:37;96711.50;;;10.39;56.67
44751;BME280;30477;48.224;11.470;2023-04-09T07:37:02;96714.13;;;10.05;55.55
44751;BME280;30477;48.224;11.470;2023-04-09T07:39:27;96716.28;;;9.78;54.24
44751;BME280;30477;48.224;11.470;2023-04-09T07:41:53;96705.50;;;9.72;55.33
44751;BME280;30477;48.224;11.470;2023-04-09T07:44:18;96708.03;;;10.06;54.25
44751;BME280;30477;48.224;11.470;2023-04-09T07:46:44;96705.78;;;10.56;53.96
44751;BME280;30477;48.224;11.470;2023-04-09T07:49:09;96701.19;;;10.81;53.09
44751;BME280;30477;48.224;11.470;2023-04-09T07:51:35;96704.13;;;11.09;53.39
44751;BME280;30477;48.224;11.470;2023-04-09T07:54:00;96702.41;;;11.50;52.67
44751;BME280;30477;48.224;11.470;2023-04-09T07:56:25;96705.28;;;11.47;51.16
44751;BME280;30477;48.224;11.470;2023-04-09T07:58:51;96706.78;;;11.49;50.57
44751;BME280;30477;48.224;11.470;2023-04-09T08:01:16;96702.66;;;11.16;49.65
44751;BME280;30477;48.224;11.470;2023-04-09T08:03:42;96701.19;;;11.23;50.21
44751;BME280;30477;48.224;11.470;2023-04-09T08:06:07;96699.19;;;11.67;50.44
44751;BME280;30477;48.224;11.470;2023-04-09T08:08:33;96702.38;;;12.21;49.55
44751;BME280;30477;48.224;11.470;2023-04-09T08:10:59;96698.47;;;12.56;49.82
44751;BME280;30477;48.224;11.470;2023-04-09T08:13:24;96698.28;;;12.96;49.51
44751;BME280;30477;48.224;11.470;2023-04-09T08:15:50;96694.69;;;13.17;49.66
44751;BME280;30477;48.224;11.470;2023-04-09T08:18:15;96697.41;;;13.25;47.95
44751;BME280;30477;48.224;11.470;2023-04-09T08:20:40;96701.56;;;12.98;46.93
44751;BME280;30477;48.224;11.470;2023-04-09T08:23:09;96713.03;;;13.06;44.90
44751;BME280;30477;48.224;11.470;2023-04-09T08:25:35;96716.59;;;12.36;45.58
44751;BME280;30477;48.224;11.470;2023-04-09T08:28:00;96714.16;;;12.35;45.07
44751;BME280;30477;48.224;11.470;2023-04-09T08:30:25;96717.78;;;11.72;45.28
44751;BME280;30477;48.224;11.470;2023-04-09T08:32:51;96728.75;;;11.24;46.19
44751;BME280;30477;48.224;11.470;2023-04-09T08:35:17;96721.91;;;11.23;46.93
44751;BME280;30477;48.224;11.470;2023-04-09T08:37:42;96714.16;;;11.85;46.52
44751;BME280;30477;48.224;11.470;2023-04-09T08:40:08;96710.59;;;12.65;45.53
44751;BME280;30477;48.224;11.470;2023-04-09T08:42:34;96703.06;;;13.11;44.81
44751;BME280;30477;48.224;11.470;2023-04-09T08:45:04;96714.09;;;13.32;44.30
44751;BME280;30477;48.224;11.470;2023-04-09T08:47:31;96715.19;;;13.20;43.42
44751;BME280;30477;48.224;11.470;2023-04-09T08:49:58;96719.31;;;13.13;43.21
44751;BME280;30477;48.224;11.470;2023-04-09T08:52:31;96710.59;;;13.61;42.80
44751;BME280;30477;48.224;11.470;2023-04-09T08:54:56;96724.00;;;13.94;41.50
44751;BME280;30477;48.224;11.470;2023-04-09T08:57:22;96715.56;;;13.54;42.27
44751;BME280;30477;48.224;11.470;2023-04-09T08:59:47;96708.44;;;14.12;42.69
44751;BME280;30477;48.224;11.470;2023-04-09T09:02:13;96710.88;;;14.77;43.25
44751;BME280;30477;48.224;11.470;2023-04-09T09:04:48;96712.34;;;14.97;41.57
44751;BME280;30477;48.224;11.470;2023-04-09T09:07:14;96711.25;;;14.82;40.03
44751;BME280;30477;48.224;11.470;2023-04-09T09:10:02;96709.91;;;14.96;39.56
44751;BME280;30477;48.224;11.470;2023-04-09T09:12:40;96717.38;;;14.09;39.55
44751;BME280;30477;48.224;11.470;2023-04-09T09:17:56;96719.63;;;12.80;41.95
44751;BME280;30477;48.224;11.470;2023-04-09T09:20:22;96718.44;;;12.05;42.99
44751;BME280;30477;48.224;11.470;2023-04-09T09:22:49;96722.34;;;11.49;44.33
44751;BME280;30477;48.224;11.470;2023-04-09T09:25:15;96719.78;;;11.28;44.99
44751;BME280;30477;48.224;11.470;2023-04-09T09:27:40;96715.97;;;11.32;45.22
44751;BME280;30477;48.224;11.470;2023-04-09T09:30:07;96719.94;;;11.67;45.61
44751;BME280;30477;48.224;11.470;2023-04-09T09:32:35;96718.56;;;11.63;43.83
44751;BME280;30477;48.224;11.470;2023-04-09T09:35:05;96721.66;;;11.26;44.67
44751;BME280;30477;48.224;11.470;2023-04-09T09:37:32;96726.50;;;11.71;45.63
44751;BME280;30477;48.224;11.470;2023-04-09T09:39:58;96724.66;;;11.52;45.31
44751;BME280;30477;48.224;11.470;2023-04-09T09:42:24;96721.22;;;11.21;45.63
44751;BME280;30477;48.224;11.470;2023-04-09T09:44:52;96724.78;;;10.99;45.42
44751;BME280;30477;48.224;11.470;2023-04-09T09:47:18;96726.94;;;11.15;45.31
44751;BME280;30477;48.224;11.470;2023-04-09T09:49:48;96726.47;;;11.10;45.50
44751;BME280;30477;48.224;11.470;2023-04-09T09:52:14;96719.78;;;11.28;46.12
44751;BME280;30477;48.224;11.470;2023-04-09T09:54:41;96713.97;;;11.15;45.50
44751;BME280;30477;48.224;11.470;2023-04-09T09:57:08;96719.59;;;11.82;46.23
44751;BME280;30477;48.224;11.470;2023-04-09T09:59:37;96709.66;;;11.87;45.23
44751;BME280;30477;48.224;11.470;2023-04-09T10:02:05;96717.88;;;11.92;45.63
44751;BME280;30477;48.224;11.470;2023-04-09T10:04:35;96719.81;;;12.09;46.08
44751;BME280;30477;48.224;11.470;2023-04-09T10:07:03;96723.34;;;11.37;45.45
44751;BME280;30477;48.224;11.470;2023-04-09T10:09:29;96721.22;;;11.21;47.17
44751;BME280;30477;48.224;11.470;2023-04-09T10:11:56;96724.69;;;10.89;47.34
44751;BME280;30477;48.224;11.470;2023-04-09T10:14:23;96722.22;;;10.67;47.63
44751;BME280;30477;48.224;11.470;2023-04-09T10:16:50;96723.53;;;10.18;48.70
44751;BME280;30477;48.224;11.470;2023-04-09T10:19:16;96712.22;;;10.30;49.35
44751;BME280;30477;48.224;11.470;2023-04-09T10:22:18;96727.13;;;10.26;49.26
44751;BME280;30477;48.224;11.470;2023-04-09T10:24:45;96726.47;;;10.13;49.54
44751;BME280;30477;48.224;11.470;2023-04-09T10:27:15;96728.94;;;10.14;49.32
44751;BME280;30477;48.224;11.470;2023-04-09T10:29:44;96730.50;;;9.83;48.70
44751;BME280;30477;48.224;11.470;2023-04-09T10:32:10;96732.50;;;9.80;49.08
44751;BME280;30477;48.224;11.470;2023-04-09T10:34:39;96726.16;;;9.84;49.09
44751;BME280;30477;48.224;11.470;2023-04-09T10:37:07;96730.63;;;9.82;48.40
44751;BME280;30477;48.224;11.470;2023-04-09T10:39:43;96728.16;;;9.69;48.44
44751;BME280;30477;48.224;11.470;2023-04-09T10:42:20;96726.06;;;9.63;48.29
44751;BME280;30477;48.224;11.470;2023-04-09T10:45:10;96729.81;;;9.70;47.71
44751;BME280;30477;48.224;11.470;2023-04-09T10:47:38;96728.97;;;9.92;47.39
44751;BME280;30477;48.224;11.470;2023-04-09T10:52:40;96717.00;;;9.57;46.79
44751;BME280;30477;48.224;11.470;2023-04-09T10:55:06;96721.72;;;9.52;46.51
44751;BME280;30477;48.224;11.470;2023-04-09T10:57:32;96722.88;;;9.59;48.17
44751;BME280;30477;48.224;11.470;2023-04-09T10:59:57;96727.34;;;9.80;48.94
44751;BME280;30477;48.224;11.470;2023-04-09T11:05:24;96719.69;;;9.44;48.71
44751;BME280;30477;48.224;11.470;2023-04-09T11:08:04;96720.72;;;9.87;48.79
44751;BME280;30477;48.224;11.470;2023-04-09T11:10:31;96719.78;;;9.99;47.88
44751;BME280;30477;48.224;11.470;2023-04-09T11:12:57;96718.28;;;9.85;47.60
44751;BME280;30477;48.224;11.470;2023-04-09T11:15:22;96725.22;;;9.73;48.03
44751;BME280;30477;48.224;11.470;2023-04-09T11:17:48;96711.59;;;9.71;48.13
44751;BME280;30477;48.224;11.470;2023-04-09T11:20:16;96713.34;;;9.82;47.48
44751;BME280;30477;48.224;11.470;2023-04-09T11:22:43;96707.38;;;9.59;45.82
44751;BME280;30477;48.224;11.470;2023-04-09T11:25:09;96709.47;;;9.65;46.97
44751;BME280;30477;48.224;11.470;2023-04-09T11:27:37;96715.81;;;9.61;46.82
44751;BME280;30477;48.224;11.470;2023-04-09T11:30:03;96710.41;;;9.53;46.35
44751;BME280;30477;48.224;11.470;2023-04-09T11:32:29;96711.13;;;9.55;47.14
44751;BME280;30477;48.224;11.470;2023-04-09T11:34:55;96712.06;;;9.65;46.81
44751;BME280;30477;48.224;11.470;2023-04-09T11:37:22;96713.94;;;9.63;46.50
44751;BME280;30477;48.224;11.470;2023-04-09T11:39:48;96715.81;;;9.61;45.52
44751;BME280;30477;48.224;11.470;2023-04-09T11:42:15;96724.66;;;9.59;45.43
44751;BME280;30477;48.224;11.470;2023-04-09T11:44:43;96725.00;;;9.54;45.76
44751;BME280;30477;48.224;11.470;2023-04-09T11:47:09;96720.66;;;9.54;45.70
44751;BME280;30477;48.224;11.470;2023-04-09T11:49:35;96722.19;;;9.46;45.96
44751;BME280;30477;48.224;11.470;2023-04-09T11:52:01;96725.72;;;9.56;46.88
44751;BME280;30477;48.224;11.470;2023-04-09T11:54:32;96729.44;;;9.63;47.54
44751;BME280;30477;48.224;11.470;2023-04-09T11:56:58;96727.00;;;9.62;47.26
44751;BME280;30477;48.224;11.470;2023-04-09T11:59:24;96733.56;;;9.54;46.55
44751;BME280;30477;48.224;11.470;2023-04-09T12:01:50;96732.25;;;9.38;46.27
44751;BME280;30477;48.224;11.470;2023-04-09T12:04:22;96728.88;;;9.48;46.55
44751;BME280;30477;48.224;11.470;2023-04-09T12:06:47;96727.56;;;9.65;47.54
44751;BME280;30477;48.224;11.470;2023-04-09T12:09:13;96735.69;;;9.61;46.73
44751;BME280;30477;48.224;11.470;2023-04-09T12:11:42;96724.75;;;9.57;46.96
44751;BME280;30477;48.224;11.470;2023-04-09T12:14:15;96727.81;;;9.62;47.03
44751;BME280;30477;48.224;11.470;2023-04-09T12:16:41;96731.56;;;9.69;47.17
44751;BME280;30477;48.224;11.470;2023-04-09T12:19:12;96729.91;;;9.57;47.40
44751;BME280;30477;48.224;11.470;2023-04-09T12:21:48;96726.16;;;9.61;47.54
44751;BME280;30477;48.224;11.470;2023-04-09T12:24:17;96721.94;;;9.71;47.59
44751;BME280;30477;48.224;11.470;2023-04-09T12:26:44;96720.06;;;9.73;48.26
44751;BME280;30477;48.224;11.470;2023-04-09T12:29:10;96728.28;;;9.79;48.00
44751;BME280;30477;48.224;11.470;2023-04-09T12:31:35;96727.09;;;9.71;47.61
44751;BME280;30477;48.224;11.470;2023-04-09T12:34:01;96723.81;;;9.58;47.80
44751;BME280;30477;48.224;11.470;2023-04-09T12:36:26;96719.59;;;9.57;48.20
44751;BME280;30477;48.224;11.470;2023-04-09T12:38:52;96720.06;;;9.62;47.84
44751;BME280;30477;48.224;11.470;2023-04-09T12:41:17;96716.41;;;9.65;48.61
44751;BME280;30477;48.224;11.470;2023-04-09T12:43:42;96710.19;;;9.56;48.31
44751;BME280;30477;48.224;11.470;2023-04-09T12:46:08;96715.59;;;9.64;48.53
44751;BME280;30477;48.224;11.470;2023-04-09T12:48:33;96712.78;;;9.67;48.64
44751;BME280;30477;48.224;11.470;2023-04-09T12:50:59;96713.72;;;9.66;48.65
44751;BME280;30477;48.224;11.470;2023-04-09T12:53:25;96706.69;;;9.68;48.51
44751;BME280;30477;48.224;11.470;2023-04-09T12:55:50;96716.53;;;9.86;48.98
44751;BME280;30477;48.224;11.470;2023-04-09T12:58:16;96718.16;;;9.75;48.48
44751;BME280;30477;48.224;11.470;2023-04-09T13:00:41;96701.84;;;9.75;49.43
44751;BME280;30477;48.224;11.470;2023-04-09T13:03:07;96703.34;;;10.00;49.69
44751;BME280;30477;48.224;11.470;2023-04-09T13:05:32;96721.00;;;9.84;48.98
44751;BME280;30477;48.224;11.470;2023-04-09T13:08:00;96711.84;;;9.68;49.15
44751;BME280;30477;48.224;11.470;2023-04-09T13:10:26;96711.59;;;9.71;49.51